Welcome to Northern Hawkes Bay. New Zealand.
PWS Header
      nz Flag



Hit Counter


W3C Valid W3C Valid logo


    Wairoa

Select any of the Stations below to visit their websites.










Historic Data from Weather Underground
Select the location of interest below. Wairoa is the default. Please have patience, this Data is slow to load in.
Northern Hawkes Bay Historical Data
Daily Summary for June 10, 2017 Units:  English    Metric   Both
« Previous Day
Next Day »
Daily Weekly Monthly Yearly Custom
  High: Low: Average:
Temperature: 67.6 °F 32 °F 51.4 °F
Dew Point: 46.9 °F -18.6 °F 41.5 °F
Humidity: 96% 10% 73%
Wind Speed: 9.8mph 0mph 3.8mph
Wind Gust: 13.6mph - -
Wind- - SW
Pressure: 30.3 in 29.9 in -
Precipitation: 0 in    
Historical Graphs
 
 
Tabular Data for June 10, 2017
Time Temperature Dew Point Pressure Wind Wind Speed Wind Gust Humidity Rainfall Rate (Hourly) solar
00:01 39.9 °F 38.8 °F 30 in NNW 3.8 mph 6 mph 96% 0 in 0 W/m2
00:06 40.1 °F 39 °F 30 in NNW 3.8 mph 7.6 mph 96% 0 in 0 W/m2
00:11 40.1 °F 39 °F 30 in NW 5.4 mph 8.3 mph 96% 0 in 0 W/m2
00:16 40.1 °F 39 °F 30 in NW 6 mph 8.3 mph 96% 0 in 0 W/m2
00:21 40.1 °F 39 °F 30 in NW 5.4 mph 9.2 mph 96% 0 in 0 W/m2
00:26 40.3 °F 39.2 °F 30 in NW 5.4 mph 9.2 mph 96% 0 in 0 W/m2
00:31 40.5 °F 39.4 °F 30 in NNW 4.5 mph 8.3 mph 96% 0 in 0 W/m2
00:36 40.3 °F 39.2 °F 30 in NNW 4.5 mph 8.3 mph 96% 0 in 0 W/m2
00:41 40.3 °F 39 °F 30 in North 5.4 mph 7.6 mph 95% 0 in 0 W/m2
00:46 40.3 °F 39 °F 30 in North 3.8 mph 9.2 mph 95% 0 in 0 W/m2
00:51 40.5 °F 39 °F 30 in NNW 3.8 mph 9.2 mph 95% 0 in 0 W/m2
00:56 40.3 °F 39 °F 30 in North 3.8 mph 8.3 mph 95% 0 in 0 W/m2
01:01 40.1 °F 38.8 °F 30 in North 1.6 mph 6 mph 95% 0 in 0 W/m2
01:06 39.7 °F 38.5 °F 30 in NNW 3.1 mph 5.4 mph 95% 0 in 0 W/m2
01:11 39.7 °F 38.5 °F 30 in North 3.1 mph 4.5 mph 95% 0 in 0 W/m2
01:16 39.7 °F 38.5 °F 30 in North 4.5 mph 6 mph 95% 0 in 0 W/m2
01:21 39.7 °F 38.5 °F 30 in NNW 3.8 mph 6.9 mph 95% 0 in 0 W/m2
01:26 39.7 °F 38.5 °F 30 in NNW 3.8 mph 6.9 mph 95% 0 in 0 W/m2
01:31 39.6 °F 38.3 °F 30 in NW 5.4 mph 6.9 mph 95% 0 in 0 W/m2
01:36 39.6 °F 38.3 °F 30 in NNW 5.4 mph 8.3 mph 95% 0 in 0 W/m2
01:41 39.6 °F 38.3 °F 30 in NW 3.8 mph 8.3 mph 95% 0 in 0 W/m2
01:46 39.6 °F 38.3 °F 30 in NNW 3.1 mph 8.3 mph 95% 0 in 0 W/m2
01:51 39.6 °F 38.3 °F 30 in NNW 1.6 mph 8.3 mph 95% 0 in 0 W/m2
01:56 39.6 °F 38.3 °F 30 in North 3.1 mph 6 mph 95% 0 in 0 W/m2
02:01 39.7 °F 38.5 °F 30 in North 3.1 mph 6 mph 95% 0 in 0 W/m2
02:06 40.1 °F 38.8 °F 30 in NNW 5.4 mph 7.6 mph 95% 0 in 0 W/m2
02:11 40.3 °F 39 °F 30 in NNW 5.4 mph 7.6 mph 95% 0 in 0 W/m2
02:16 40.3 °F 39 °F 30 in North 5.4 mph 9.2 mph 95% 0 in 0 W/m2
02:21 40.1 °F 38.8 °F 30 in NNW 6 mph 10.7 mph 95% 0 in 0 W/m2
02:26 39.7 °F 38.1 °F 30 in NNW 6 mph 10.7 mph 94% 0 in 0 W/m2
02:31 39.4 °F 37.8 °F 30 in NW 6 mph 10.7 mph 94% 0 in 0 W/m2
02:36 39 °F 37.8 °F 30 in NW 6.9 mph 9.8 mph 95% 0 in 0 W/m2
02:41 38.8 °F 37.6 °F 30 in NNW 6 mph 9.8 mph 95% 0 in 0 W/m2
02:46 38.7 °F 37.4 °F 30 in NNW 7.6 mph 9.2 mph 95% 0 in 0 W/m2
02:51 38.7 °F 37.4 °F 30 in NNW 8.3 mph 9.8 mph 95% 0 in 0 W/m2
02:56 38.5 °F 37.2 °F 29.9 in NW 5.4 mph 9.8 mph 95% 0 in 0 W/m2
03:01 38.7 °F 37.4 °F 29.9 in NNW 6 mph 9.8 mph 95% 0 in 0 W/m2
03:06 38.7 °F 37.6 °F 29.9 in NNW 5.4 mph 9.8 mph 96% 0 in 0 W/m2
03:11 38.7 °F 37.6 °F 29.9 in NNW 5.4 mph 9.8 mph 96% 0 in 0 W/m2
03:16 38.7 °F 37.6 °F 29.9 in NNW 6.9 mph 9.2 mph 96% 0 in 0 W/m2
03:21 38.7 °F 37.6 °F 29.9 in NNW 8.3 mph 12.1 mph 96% 0 in 0 W/m2
03:26 38.7 °F 37.6 °F 29.9 in NNW 9.2 mph 12.1 mph 96% 0 in 0 W/m2
03:31 38.7 °F 37.6 °F 29.9 in NW 6 mph 11.4 mph 96% 0 in 0 W/m2
03:36 38.5 °F 37.4 °F 29.9 in NNW 4.5 mph 11.4 mph 96% 0 in 0 W/m2
03:41 38.3 °F 37.2 °F 29.9 in NNW 4.5 mph 9.2 mph 96% 0 in 0 W/m2
03:46 38.1 °F 36.9 °F 29.9 in NNW 4.5 mph 9.8 mph 95% 0 in 0 W/m2
03:51 38.1 °F 36.9 °F 29.9 in NNW 5.4 mph 9.8 mph 95% 0 in 0 W/m2
03:56 38.1 °F 37 °F 29.9 in NNW 6.9 mph 10.7 mph 96% 0 in 0 W/m2
04:01 38.3 °F 37.2 °F 29.9 in NNW 5.4 mph 11.4 mph 96% 0 in 0 W/m2
04:06 38.3 °F 37.2 °F 29.9 in NNW 8.3 mph 13 mph 96% 0 in 0 W/m2
04:11 38.1 °F 37 °F 29.9 in NNW 6 mph 13 mph 96% 0 in 0 W/m2
04:16 38.1 °F 37 °F 29.9 in NNW 5.4 mph 11.4 mph 96% 0 in 0 W/m2
04:21 37.9 °F 36.7 °F 29.9 in NW 7.6 mph 13.6 mph 95% 0 in 0 W/m2
04:26 37.8 °F 36.5 °F 29.9 in NW 7.6 mph 13.6 mph 95% 0 in 0 W/m2
04:31 37.8 °F 36.5 °F 29.9 in NNW 5.4 mph 10.7 mph 95% 0 in 0 W/m2
04:36 37.6 °F 36.3 °F 29.9 in NNW 4.5 mph 9.8 mph 95% 0 in 0 W/m2
04:41 37.6 °F 36.3 °F 29.9 in NW 4.5 mph 9.8 mph 95% 0 in 0 W/m2
04:46 37.6 °F 36.3 °F 29.9 in NW 4.5 mph 8.3 mph 95% 0 in 0 W/m2
04:51 37.6 °F 36.3 °F 29.9 in NNW 6 mph 9.2 mph 95% 0 in 0 W/m2
04:56 37.6 °F 36.3 °F 29.9 in North 2.2 mph 9.2 mph 95% 0 in 0 W/m2
05:01 37.6 °F 36.3 °F 29.9 in NNW 4.5 mph 9.2 mph 95% 0 in 0 W/m2
05:06 37.8 °F 36.7 °F 29.9 in NNW 6.9 mph 9.8 mph 96% 0 in 0 W/m2
05:11 37.8 °F 36.5 °F 29.9 in NNW 5.4 mph 13.6 mph 95% 0 in 0 W/m2
05:16 37.6 °F 36.3 °F 29.9 in NNW 5.4 mph 13.6 mph 95% 0 in 0 W/m2
05:21 37.4 °F 36.1 °F 29.9 in NNW 6 mph 9.8 mph 95% 0 in 0 W/m2
05:26 37.6 °F 36.3 °F 29.9 in NNW 9.2 mph 12.1 mph 95% 0 in 0 W/m2
05:31 37.6 °F 36.3 °F 29.9 in NNW 8.3 mph 12.1 mph 95% 0 in 0 W/m2
05:36 37.8 °F 36.5 °F 29.9 in NNW 6.9 mph 12.1 mph 95% 0 in 0 W/m2
05:41 37.8 °F 36.5 °F 29.9 in NNW 6 mph 12.1 mph 95% 0 in 0 W/m2
05:46 38.1 °F 36.9 °F 29.9 in NNW 4.5 mph 9.8 mph 95% 0 in 0 W/m2
05:51 38.1 °F 36.9 °F 29.9 in NNW 9.2 mph 12.1 mph 95% 0 in 0 W/m2
05:56 38.1 °F 36.9 °F 29.9 in North 9.2 mph 12.1 mph 95% 0 in 0 W/m2
06:01 37.9 °F 36.7 °F 29.9 in North 6.9 mph 13 mph 95% 0 in 0 W/m2
06:06 38.3 °F 37 °F 29.9 in NNW 5.4 mph 13 mph 95% 0 in 0 W/m2
06:11 38.3 °F 37 °F 29.9 in NNW 6 mph 13 mph 95% 0 in 0 W/m2
06:16 38.5 °F 37.2 °F 29.9 in NNW 5.4 mph 10.7 mph 95% 0 in 0 W/m2
06:21 38.3 °F 36.7 °F 29.9 in North 3.1 mph 10.7 mph 94% 0 in 0 W/m2
06:26 38.1 °F 36.7 °F 29.9 in North 3.1 mph 9.8 mph 94% 0 in 0 W/m2
06:31 38.1 °F 36.7 °F 29.9 in NNW 5.4 mph 6.9 mph 94% 0 in 0 W/m2
06:36 38.3 °F 36.7 °F 29.9 in NW 4.5 mph 7.6 mph 94% 0 in 0 W/m2
06:41 38.3 °F 36.7 °F 29.9 in NW 4.5 mph 7.6 mph 94% 0 in 0 W/m2
06:46 37.9 °F 36.3 °F 29.9 in NW 4.5 mph 7.6 mph 94% 0 in 0 W/m2
06:51 37.6 °F 35.8 °F 29.9 in NW 6 mph 8.3 mph 93% 0 in 0 W/m2
06:56 37.4 °F 35.8 °F 29.9 in NW 6 mph 8.3 mph 94% 0 in 0 W/m2
07:01 37.4 °F 35.8 °F 29.9 in NW 6.9 mph 9.2 mph 94% 0 in 0 W/m2
07:06 37.4 °F 35.8 °F 29.9 in NW 5.4 mph 9.2 mph 94% 0 in 0 W/m2
07:11 37.2 °F 34.5 °F 29.9 in NW 4.5 mph 9.2 mph 90% 0 in 0 W/m2
07:16 37 °F 34.7 °F 29.9 in NW 4.5 mph 9.2 mph 91% 0 in 0 W/m2
07:21 37 °F 34.3 °F 29.9 in NW 4.5 mph 7.6 mph 90% 0 in 2 W/m2
07:26 37 °F 34.7 °F 29.9 in NNW 2.2 mph 7.6 mph 91% 0 in 3 W/m2
07:28 37.2 °F 34.9 °F 29.9 in Calm   7.6 mph 91% 0 in 4 W/m2
07:33 37 °F 34.7 °F 29.9 in NNW 3.1 mph 7.6 mph 91% 0 in 5 W/m2
07:38 37 °F 34.7 °F 29.9 in WNW 0.7 mph 4.5 mph 91% 0 in 10 W/m2
07:43 37.6 °F 36.3 °F 29.9 in NW 5.4 mph 8.3 mph 95% 0 in 37 W/m2
07:48 38.5 °F 37.2 °F 29.9 in NW 3.8 mph 8.3 mph 95% 0 in 51 W/m2
08:05 38.5 °F 36.9 °F 29.9 in NW 4.5 mph 7.6 mph 94% 0 in 28 W/m2
08:10 38.5 °F 36.9 °F 29.9 in NNW 0.7 mph 6.9 mph 94% 0 in 39 W/m2
08:15 39 °F 37.4 °F 29.9 in NNE 3.1 mph 6.9 mph 94% 0 in 90 W/m2
08:20 39.4 °F 37.6 °F 29.9 in NNW 7.6 mph 10.7 mph 93% 0 in 84 W/m2
08:25 39.7 °F 37.6 °F 29.9 in NW 8.3 mph 11.4 mph 92% 0 in 66 W/m2
08:30 39.9 °F 37.8 °F 29.9 in NW 5.4 mph 11.4 mph 92% 0 in 98 W/m2
08:35 40.3 °F 37.9 °F 29.9 in NNW 4.5 mph 9.8 mph 91% 0 in 83 W/m2
08:41 40.6 °F 38.1 °F 29.9 in NNW 4.5 mph 9.2 mph 91% 0 in 76 W/m2
08:46 40.6 °F 37.9 °F 29.9 in NNW 5.4 mph 9.8 mph 90% 0 in 73 W/m2
08:51 40.3 °F 37.6 °F 29.9 in NW 7.6 mph 9.8 mph 90% 0 in 80 W/m2
08:56 40.5 °F 37.8 °F 29.9 in NW 6 mph 9.8 mph 90% 0 in 84 W/m2
09:01 40.8 °F 38.1 °F 29.9 in NW 6 mph 9.8 mph 90% 0 in 90 W/m2
09:06 41.2 °F 38.1 °F 29.9 in NNW 5.4 mph 9.2 mph 89% 0 in 115 W/m2
09:11 41.5 °F 38.5 °F 29.9 in NW 6 mph 9.2 mph 89% 0 in 123 W/m2
09:16 43.5 °F 40.3 °F 29.9 in NW 6 mph 10.7 mph 88% 0 in 229 W/m2
09:21 43 °F 39 °F 29.9 in NW 5.4 mph 10.7 mph 86% 0 in 179 W/m2
09:26 43.5 °F 39.4 °F 29.9 in NW 6 mph 10.7 mph 85% 0 in 158 W/m2
09:31 43.9 °F 39.4 °F 29.9 in NW 6 mph 10.7 mph 84% 0 in 153 W/m2
09:36 44.4 °F 39.9 °F 29.9 in NNW 5.4 mph 10.7 mph 84% 0 in 216 W/m2
09:41 45.5 °F 40.3 °F 29.9 in NNW 7.6 mph 10.7 mph 82% 0 in 176 W/m2
09:46 45.9 °F 40.5 °F 29.9 in NNW 7.6 mph 10.7 mph 81% 0 in 136 W/m2
09:51 45.9 °F 40.5 °F 29.9 in NNW 7.6 mph 10.7 mph 81% 0 in 124 W/m2
09:56 45.9 °F 40.5 °F 29.9 in NNW 6.9 mph 11.4 mph 81% 0 in 125 W/m2
10:01 46.4 °F 40.8 °F 30 in NW 6 mph 11.4 mph 81% 0 in 127 W/m2
10:06 46.4 °F 40.6 °F 29.9 in NW 6 mph 10.7 mph 80% 0 in 128 W/m2
10:11 46.4 °F 40.6 °F 29.9 in NNW 6.9 mph 12.1 mph 80% 0 in 133 W/m2
10:16 46.6 °F 41.2 °F 30 in NNW 6 mph 12.1 mph 81% 0 in 139 W/m2
10:21 47.1 °F 41.5 °F 30 in NNW 4.5 mph 9.8 mph 81% 0 in 143 W/m2
10:26 48.2 °F 42.3 °F 30 in NNW 5.4 mph 7.6 mph 80% 0 in 146 W/m2
10:32 48.7 °F 41.9 °F 30 in North 5.4 mph 9.8 mph 77% 0 in 145 W/m2
10:37 48.7 °F 41.5 °F 30 in NNW 3.1 mph 9.8 mph 76% 0 in 139 W/m2
10:42 49.3 °F 42.4 °F 30 in NNW 3.8 mph 7.6 mph 77% 0 in 132 W/m2
10:47 49.6 °F 42.4 °F 30 in NNW 4.5 mph 6.9 mph 76% 0 in 124 W/m2
10:52 50.4 °F 42.6 °F 30 in NNW 4.5 mph 6.9 mph 75% 0 in 113 W/m2
10:57 50.4 °F 42.4 °F 30 in NNW 3.8 mph 6.9 mph 74% 0 in 107 W/m2
11:02 50.9 °F 43.3 °F 30 in NNW 5.4 mph 6.9 mph 75% 0 in 93 W/m2
11:07 51.8 °F 43.3 °F 30 in North 2.2 mph 6 mph 73% 0 in 76 W/m2
11:12 52.3 °F 43.5 °F 30 in NNE 2.2 mph 6 mph 72% 0 in 71 W/m2
11:17 53.1 °F 43.9 °F 30 in NNE 2.2 mph 5.4 mph 71% 0 in 80 W/m2
11:22 54.3 °F 44.4 °F 30 in NNW 5.4 mph 6.9 mph 69% 0 in 74 W/m2
11:27 54.7 °F 43.9 °F 30 in NW 3.8 mph 6.9 mph 67% 0 in 61 W/m2
11:32 54.7 °F 43.9 °F 30 in NW 3.8 mph 6.9 mph 67% 0 in 62 W/m2
11:37 55.9 °F 45.1 °F 30 in NW 3.8 mph 6 mph 67% 0 in 59 W/m2
11:43 57 °F 46.2 °F 29.9 in NW 3.1 mph 5.4 mph 67% 0 in 56 W/m2
11:48 58.3 °F 46.6 °F 29.9 in NW 3.1 mph 5.4 mph 65% 0 in 54 W/m2
11:53 59 °F 46.4 °F 29.9 in NW 3.1 mph 6.9 mph 63% 0 in 54 W/m2
11:58 59 °F 45.1 °F 30 in NNW 3.1 mph 6.9 mph 60% 0 in 53 W/m2
12:03 59.5 °F 45.1 °F 29.9 in NW 2.2 mph 6.9 mph 59% 0 in 52 W/m2
12:08 59.9 °F 44.2 °F 29.9 in NNW 3.1 mph 6.9 mph 56% 0 in 52 W/m2
12:13 59.5 °F 43.9 °F 30 in NNW 3.1 mph 6.9 mph 56% 0 in 52 W/m2
12:18 60.1 °F 44.2 °F 29.9 in NW 2.2 mph 5.4 mph 56% 0 in 52 W/m2
12:20 60.1 °F 44.2 °F 29.9 in NW 2.2 mph 5.4 mph 56% 0 in 52 W/m2
12:36 62.1 °F 45.7 °F 29.9 in NNW 3.1 mph 5.4 mph 55% 0 in 52 W/m2
12:41 62.1 °F 45.7 °F 29.9 in NW 3.1 mph 3.8 mph 55% 0 in 52 W/m2
12:46 65.3 °F 46.8 °F 29.9 in North 3.8 mph 4.5 mph 51% 0 in 73 W/m2
12:51 65.3 °F 46.8 °F 29.9 in NE 3.8 mph 4.5 mph 51% 0 in 73 W/m2
12:56 66.7 °F 46.9 °F 29.9 in NE 1.6 mph 4.5 mph 49% 0 in 73 W/m2
13:02 66.7 °F 46.9 °F 29.9 in NE 1.6 mph 3.8 mph 49% 0 in 73 W/m2
13:07 66.7 °F 46.9 °F 29.9 in NE 1.6 mph 3.8 mph 49% 0 in 73 W/m2
13:12 66.7 °F 46.9 °F 29.9 in NE 1.6 mph 3.8 mph 49% 0 in 73 W/m2
13:17 66.7 °F 46.9 °F 29.9 in NE 1.6 mph 3.8 mph 49% 0 in 73 W/m2
13:22 66.7 °F 46.9 °F 29.9 in NE 1.6 mph 3.8 mph 49% 0 in 73 W/m2
13:27 66.7 °F 46.9 °F 29.9 in NE 1.6 mph 3.8 mph 49% 0 in 73 W/m2
13:32 66.7 °F 46.9 °F 29.9 in NE 1.6 mph 3.8 mph 49% 0 in 73 W/m2
13:37 66.7 °F 46.9 °F 29.9 in NE 1.6 mph 3.8 mph 49% 0 in 73 W/m2
13:42 66.7 °F 46.9 °F 29.9 in NE 1.6 mph 3.8 mph 49% 0 in 73 W/m2
13:47 66.7 °F 46.9 °F 29.9 in NE 1.6 mph 3.8 mph 49% 0 in 73 W/m2
13:52 66.7 °F 46.9 °F 29.9 in NE 1.6 mph 3.8 mph 49% 0 in 73 W/m2
13:57 66.7 °F 46.9 °F 29.9 in NE 1.6 mph 3.8 mph 49% 0 in 73 W/m2
14:02 66.7 °F 46.9 °F 29.9 in NE 1.6 mph 3.8 mph 49% 0 in 73 W/m2
14:07 66.7 °F 46.9 °F 29.9 in NE 1.6 mph 3.8 mph 49% 0 in 73 W/m2
14:12 66.7 °F 46.9 °F 30 in NE 1.6 mph 3.8 mph 49% 0 in 73 W/m2
14:17 66.7 °F 46.9 °F 30 in NE 1.6 mph 3.8 mph 49% 0 in 73 W/m2
14:22 66.7 °F 46.9 °F 30 in NE 1.6 mph 3.8 mph 49% 0 in 73 W/m2
14:27 66.7 °F 46.9 °F 29.9 in NE 1.6 mph 3.8 mph 49% 0 in 73 W/m2
14:32 66.7 °F 46.9 °F 30 in NE 1.6 mph 3.8 mph 49% 0 in 73 W/m2
14:37 66.7 °F 46.9 °F 30 in NE 1.6 mph 3.8 mph 49% 0 in 73 W/m2
14:42 66.7 °F 46.9 °F 30 in NE 1.6 mph 3.8 mph 49% 0 in 73 W/m2
14:47 66.7 °F 46.9 °F 30 in NE 1.6 mph 3.8 mph 49% 0 in 73 W/m2
14:52 66.7 °F 46.9 °F 30 in NE 1.6 mph 3.8 mph 49% 0 in 73 W/m2
14:57 66.7 °F 46.9 °F 30 in NE 1.6 mph 3.8 mph 49% 0 in 73 W/m2
15:02 66.7 °F 46.9 °F 30 in NE 1.6 mph 3.8 mph 49% 0 in 73 W/m2
15:07 66.7 °F 46.9 °F 30 in NE 1.6 mph 3.8 mph 49% 0 in 73 W/m2
15:12 66.7 °F 46.9 °F 30 in NE 1.6 mph 3.8 mph 49% 0 in 73 W/m2
15:17 66.7 °F 46.9 °F 30 in NE 1.6 mph 3.8 mph 49% 0 in 73 W/m2
15:22 66.7 °F 46.9 °F 30 in NE 1.6 mph 3.8 mph 49% 0 in 73 W/m2
15:27 66.7 °F 46.9 °F 30 in NE 1.6 mph 3.8 mph 49% 0 in 73 W/m2
15:32 66.7 °F 46.9 °F 30 in NE 1.6 mph 3.8 mph 49% 0 in 73 W/m2
15:37 66.7 °F 46.9 °F 30 in NE 1.6 mph 3.8 mph 49% 0 in 73 W/m2
15:42 66.7 °F 46.9 °F 30 in NE 1.6 mph 3.8 mph 49% 0 in 73 W/m2
15:47 66.7 °F 46.9 °F 30 in NE 1.6 mph 3.8 mph 49% 0 in 73 W/m2
15:52 66.7 °F 46.9 °F 30 in NE 1.6 mph 3.8 mph 49% 0 in 73 W/m2
15:57 66.7 °F 46.9 °F 30 in NE 1.6 mph 3.8 mph 49% 0 in 73 W/m2
16:02 66.7 °F 46.9 °F 30 in NE 1.6 mph 3.8 mph 49% 0 in 73 W/m2
16:20 66.7 °F 46.9 °F 30 in NE 1.6 mph 3.8 mph 49% 0 in 73 W/m2
16:25 66.7 °F 46.9 °F 30 in NE 1.6 mph 3.8 mph 49% 0 in 73 W/m2
16:30 66.7 °F 46.9 °F 30 in NE 1.6 mph 3.8 mph 49% 0 in 73 W/m2
16:35 66.7 °F 46.9 °F 30 in NE 1.6 mph 3.8 mph 49% 0 in 73 W/m2
16:40 66.7 °F 46.9 °F 30 in NE 1.6 mph 3.8 mph 49% 0 in 73 W/m2
16:45 66.7 °F 46.9 °F 30 in NE 1.6 mph 3.8 mph 49% 0 in 73 W/m2
16:50 66.7 °F 46.9 °F 30 in NE 1.6 mph 3.8 mph 49% 0 in 73 W/m2
16:55 66.7 °F 46.9 °F 30 in NE 1.6 mph 3.8 mph 49% 0 in 73 W/m2
17:00 66.7 °F 46.9 °F 30 in NE 1.6 mph 3.8 mph 49% 0 in 73 W/m2
17:05 66.7 °F 46.9 °F 30 in NE 1.6 mph 3.8 mph 49% 0 in 73 W/m2
17:10 66.7 °F 46.9 °F 30 in NE 1.6 mph 3.8 mph 49% 0 in 73 W/m2
17:15 66.7 °F 46.9 °F 30 in NE 1.6 mph 3.8 mph 49% 0 in 73 W/m2
17:20 66.7 °F 46.9 °F 30 in NE 1.6 mph 3.8 mph 49% 0 in 73 W/m2
17:26 66.7 °F 46.9 °F 30 in NE 1.6 mph 3.8 mph 49% 0 in 73 W/m2
17:31 66.7 °F 46.9 °F 30 in NE 1.6 mph 3.8 mph 49% 0 in 73 W/m2
17:36 66.7 °F 46.9 °F 30.1 in NE 1.6 mph 3.8 mph 49% 0 in 73 W/m2
17:41 66.7 °F 46.9 °F 30.1 in NE 1.6 mph 3.8 mph 49% 0 in 73 W/m2
17:46 66.7 °F 46.9 °F 30.1 in NE 1.6 mph 3.8 mph 49% 0 in 73 W/m2
17:51 66.7 °F 46.9 °F 30.1 in NE 1.6 mph 3.8 mph 49% 0 in 73 W/m2
17:56 66.7 °F 46.9 °F 30.1 in NE 1.6 mph 3.8 mph 49% 0 in 73 W/m2
18:01 66.7 °F 46.9 °F 30.1 in NE 1.6 mph 3.8 mph 49% 0 in 73 W/m2
18:06 66.7 °F 46.9 °F 30.1 in NE 1.6 mph 3.8 mph 49% 0 in 73 W/m2
18:11 66.7 °F 46.9 °F 30.1 in NE 1.6 mph 3.8 mph 49% 0 in 73 W/m2
18:16 66.7 °F 46.9 °F 30.1 in NE 1.6 mph 3.8 mph 49% 0 in 73 W/m2
18:21 66.7 °F 46.9 °F 30.1 in NE 1.6 mph 3.8 mph 49% 0 in 73 W/m2
18:26 66.7 °F 46.9 °F 30.1 in NE 1.6 mph 3.8 mph 49% 0 in 73 W/m2
18:31 66.7 °F 46.9 °F 30.1 in NE 1.6 mph 3.8 mph 49% 0 in 73 W/m2
18:36 66.7 °F 46.9 °F 30.1 in NE 1.6 mph 3.8 mph 49% 0 in 73 W/m2
18:41 66.7 °F 46.9 °F 30.1 in NE 1.6 mph 3.8 mph 49% 0 in 73 W/m2
18:46 66.7 °F 46.9 °F 30.1 in NE 1.6 mph 3.8 mph 49% 0 in 73 W/m2
18:51 66.7 °F 46.9 °F 30.1 in NE 1.6 mph 3.8 mph 49% 0 in 73 W/m2
18:56 66.7 °F 46.9 °F 30.1 in NE 1.6 mph 3.8 mph 49% 0 in 73 W/m2
19:01 66.7 °F 46.9 °F 30.1 in NE 1.6 mph 3.8 mph 49% 0 in 73 W/m2
19:06 66.7 °F 46.9 °F 30.1 in NE 1.6 mph 3.8 mph 49% 0 in 73 W/m2
19:11 66.7 °F 46.9 °F 30.1 in NE 1.6 mph 3.8 mph 49% 0 in 73 W/m2
19:16 66.7 °F 46.9 °F 30.1 in NE 1.6 mph 3.8 mph 49% 0 in 73 W/m2
19:21 66.7 °F 46.9 °F 30.1 in NE 1.6 mph 3.8 mph 49% 0 in 73 W/m2
19:26 66.7 °F 46.9 °F 30.1 in NE 1.6 mph 3.8 mph 49% 0 in 73 W/m2
19:31 66.7 °F 46.9 °F 30.1 in NE 1.6 mph 3.8 mph 49% 0 in 73 W/m2
19:36 66.7 °F 46.9 °F 30.1 in NE 1.6 mph 3.8 mph 49% 0 in 73 W/m2
19:41 66.7 °F 46.9 °F 30.1 in NE 1.6 mph 3.8 mph 49% 0 in 73 W/m2
19:46 66.7 °F 46.9 °F 30.1 in NE 1.6 mph 3.8 mph 49% 0 in 73 W/m2
19:51 66.7 °F 46.9 °F 30.1 in NE 1.6 mph 3.8 mph 49% 0 in 73 W/m2
19:56 66.7 °F 46.9 °F 30.1 in NE 1.6 mph 3.8 mph 49% 0 in 73 W/m2
20:01 66.7 °F 46.9 °F 30.1 in NE 1.6 mph 3.8 mph 49% 0 in 73 W/m2
20:05 32 °F -18.6 °F 30.3 in NNW 4.5 mph 7.6 mph 10% 0 in 82 W/m2
20:06 66.7 °F 46.9 °F 30.1 in NE 1.6 mph 3.8 mph 49% 0 in 73 W/m2
20:11 66.7 °F 46.9 °F 30.1 in NE 1.6 mph 3.8 mph 49% 0 in 73 W/m2
20:35 51.6 °F 42.3 °F 30.1 in NW 1.6 mph 3.1 mph 70% 0 in 98 W/m2
21:05 55.9 °F 44.2 °F 30.1 in North 2.2 mph 3.1 mph 65% 0 in 166 W/m2
21:35 58.6 °F 43 °F 30.1 in North 3.1 mph 4.5 mph 56% 0 in 204 W/m2
22:05 59.7 °F 44.1 °F 30.1 in NW 2.2 mph 3.8 mph 56% 0 in 184 W/m2
22:35 62.8 °F 45 °F 30 in North 3.1 mph 4.5 mph 52% 0 in 134 W/m2
23:05 67.6 °F 45.5 °F 30 in North 2.2 mph 3.1 mph 45% 0 in 106 W/m2
23:35 62.2 °F 41.2 °F 30 in NW 9.8 mph 12.1 mph 46% 0 in 122 W/m2
Northern Hawkes Bay. New Zealand Historic Data
Compliments of Weather Underground - 2 mb